createdAt,value
2019-03-15T00:03:18.324Z,97029.00
2019-03-15T00:07:23.212Z,97038.32
2019-03-15T00:11:28.123Z,97044.83
2019-03-15T00:15:33.012Z,97045.70
2019-03-15T00:19:37.927Z,97050.94
2019-03-15T00:23:42.816Z,97049.77
2019-03-15T00:27:47.718Z,97051.73
2019-03-15T00:31:52.614Z,97047.32
2019-03-15T00:35:57.529Z,97050.19
2019-03-15T00:40:02.430Z,97045.38
2019-03-15T00:44:07.313Z,97046.68
2019-03-15T00:48:12.216Z,97046.73
2019-03-15T00:52:17.123Z,97046.92
2019-03-15T00:56:22.024Z,97046.07
2019-03-15T01:00:26.937Z,97042.12
2019-03-15T01:04:31.893Z,97050.03
2019-03-15T01:08:36.783Z,97051.73
2019-03-15T01:12:41.681Z,97054.09
2019-03-15T01:16:46.578Z,97059.82
2019-03-15T01:20:51.456Z,97058.37
2019-03-15T01:24:56.352Z,97069.59
2019-03-15T01:29:01.255Z,97064.89
2019-03-15T01:33:06.142Z,97057.41
2019-03-15T01:37:11.064Z,97059.27
2019-03-15T01:41:15.928Z,97066.31
2019-03-15T01:45:20.830Z,97072.09
2019-03-15T01:49:25.737Z,97077.92
2019-03-15T01:53:30.640Z,97077.16
2019-03-15T01:57:35.541Z,97072.85
2019-03-15T02:01:40.426Z,97070.75
2019-03-15T02:05:45.322Z,97058.53
2019-03-15T02:09:50.215Z,97065.80
2019-03-15T02:13:55.125Z,97050.84
2019-03-15T02:18:00.028Z,97054.23
2019-03-15T02:22:04.913Z,97053.98
2019-03-15T02:26:09.808Z,97052.28
2019-03-15T02:30:14.705Z,97053.98
2019-03-15T02:34:19.600Z,97054.44
2019-03-15T02:38:24.511Z,97054.09
2019-03-15T02:42:29.384Z,97058.94
2019-03-15T02:46:34.285Z,97061.14
2019-03-15T02:50:39.178Z,97054.69
2019-03-15T02:54:44.074Z,97055.80
2019-03-15T02:58:48.966Z,97061.84
2019-03-15T03:02:54.192Z,97062.84
2019-03-15T03:06:59.345Z,97051.13
2019-03-15T03:11:04.245Z,97054.17
2019-03-15T03:15:09.582Z,97070.25
2019-03-15T03:19:14.472Z,97082.37
2019-03-15T03:23:19.355Z,97083.93
2019-03-15T03:27:24.253Z,97072.47
2019-03-15T03:31:29.154Z,97063.75
2019-03-15T03:35:34.052Z,97070.62
2019-03-15T03:39:38.958Z,97077.68
2019-03-15T03:43:43.841Z,97081.01
2019-03-15T03:47:48.728Z,97087.44
2019-03-15T03:51:53.628Z,97082.37
2019-03-15T03:55:58.532Z,97077.75
2019-03-15T04:00:05.214Z,97088.42
2019-03-15T04:04:10.099Z,97085.89
2019-03-15T04:08:14.988Z,97083.67
2019-03-15T04:12:20.961Z,97092.33
2019-03-15T04:16:25.856Z,97092.25
2019-03-15T04:20:30.751Z,97064.91
2019-03-15T04:24:35.636Z,97072.14
2019-03-15T04:28:40.531Z,97074.94
2019-03-15T04:32:45.420Z,97070.63
2019-03-15T04:36:51.296Z,97068.29
2019-03-15T04:40:56.226Z,97064.64
2019-03-15T04:45:01.093Z,97069.20
2019-03-15T04:49:05.972Z,97072.97
2019-03-15T04:53:10.866Z,97079.12
2019-03-15T04:57:15.761Z,97080.23
2019-03-15T05:01:20.663Z,97081.45
2019-03-15T05:05:25.550Z,97067.52
2019-03-15T05:09:30.441Z,97062.17
2019-03-15T05:13:35.324Z,97063.02
2019-03-15T05:17:40.234Z,97067.37
2019-03-15T05:21:45.122Z,97066.08
2019-03-15T05:25:50.031Z,97069.22
2019-03-15T05:29:54.918Z,97071.03
2019-03-15T05:33:59.807Z,97062.31
2019-03-15T05:38:04.701Z,97070.13
2019-03-15T05:42:09.597Z,97073.33
2019-03-15T05:46:14.500Z,97072.48
2019-03-15T05:50:19.382Z,97057.76
2019-03-15T05:54:24.284Z,97058.07
2019-03-15T05:58:30.243Z,97056.41
2019-03-15T06:02:35.156Z,97065.03
2019-03-15T06:06:40.181Z,97064.13
2019-03-15T06:10:45.000Z,97070.64
2019-03-15T06:14:49.897Z,97066.48
2019-03-15T06:18:54.795Z,97064.59
2019-03-15T06:22:59.744Z,97060.34
2019-03-15T06:27:04.646Z,97056.77
2019-03-15T06:31:09.526Z,97047.65
2019-03-15T06:35:14.416Z,97049.27
2019-03-15T06:39:19.299Z,97049.15
2019-03-15T06:43:24.191Z,97036.83
2019-03-15T06:47:30.044Z,97040.73
2019-03-15T06:51:35.058Z,97037.38
2019-03-15T06:55:39.943Z,97030.44
2019-03-15T06:59:44.845Z,97019.21
2019-03-15T07:03:49.745Z,97010.47
2019-03-15T07:07:54.662Z,97004.61
2019-03-15T07:12:08.946Z,97010.20
2019-03-15T07:16:06.135Z,97012.61
2019-03-15T07:20:15.109Z,97013.58
2019-03-15T07:24:25.246Z,97009.88
2019-03-15T07:28:26.597Z,97001.61
2019-03-15T07:32:31.484Z,96999.45
2019-03-15T07:36:37.331Z,96987.32
2019-03-15T07:40:43.323Z,96976.33
2019-03-15T07:44:49.110Z,96964.20
2019-03-15T07:48:54.063Z,96978.84
2019-03-15T07:52:58.947Z,96965.73
2019-03-15T07:57:03.834Z,96964.38
2019-03-15T08:01:08.726Z,96965.63
2019-03-15T08:05:13.638Z,96959.23
2019-03-15T08:09:19.587Z,96944.59
2019-03-15T08:13:24.488Z,96954.73
2019-03-15T08:17:29.366Z,96956.89
2019-03-15T08:21:34.258Z,96953.89
2019-03-15T08:25:39.447Z,96943.84
2019-03-15T08:29:44.348Z,96933.91
2019-03-15T08:33:49.235Z,96931.77
2019-03-15T08:37:54.105Z,96930.45
2019-03-15T08:41:59.829Z,96918.19
2019-03-15T08:46:04.721Z,96921.41
2019-03-15T08:50:17.718Z,96907.03
2019-03-15T08:54:23.571Z,96906.11
2019-03-15T08:58:28.461Z,96904.31
2019-03-15T09:02:33.350Z,96910.17
2019-03-15T09:06:40.790Z,96903.15
2019-03-15T09:10:44.832Z,96871.22
2019-03-15T09:14:49.724Z,96889.27
2019-03-15T09:18:55.592Z,96879.36
2019-03-15T09:23:00.585Z,96876.98
2019-03-15T09:27:05.557Z,96861.48
2019-03-15T09:31:10.453Z,96875.47
2019-03-15T09:35:15.353Z,96870.15
2019-03-15T09:39:20.237Z,96864.94
2019-03-15T09:43:25.140Z,96867.25
2019-03-15T09:47:30.037Z,96872.79
2019-03-15T09:51:34.932Z,96868.86
2019-03-15T09:55:39.835Z,96861.69
2019-03-15T09:59:44.730Z,96865.63
2019-03-15T10:03:49.626Z,96869.39
2019-03-15T10:07:54.525Z,96858.34
2019-03-15T10:11:59.424Z,96863.94
2019-03-15T10:16:04.323Z,96863.74
2019-03-15T10:20:12.504Z,96860.77
2019-03-15T10:24:17.477Z,96852.31
2019-03-15T10:28:23.445Z,96846.66
2019-03-15T10:32:28.417Z,96844.53
2019-03-15T10:36:34.613Z,96848.20
2019-03-15T10:40:39.796Z,96834.80
2019-03-15T10:44:44.682Z,96837.87
2019-03-15T10:48:49.585Z,96826.23
2019-03-15T10:52:54.485Z,96824.07
2019-03-15T10:56:59.379Z,96828.85
2019-03-15T11:01:04.506Z,96826.00
2019-03-15T11:05:10.450Z,96828.38
2019-03-15T11:09:15.352Z,96821.44
2019-03-15T11:13:20.254Z,96827.05
2019-03-15T11:17:25.172Z,96821.95
2019-03-15T11:21:30.052Z,96839.56
2019-03-15T11:25:34.950Z,96846.29
2019-03-15T11:29:39.843Z,96847.30
2019-03-15T11:33:47.258Z,96857.33
2019-03-15T11:37:52.419Z,96849.29
2019-03-15T11:41:57.306Z,96851.60
2019-03-15T11:46:02.203Z,96839.00
2019-03-15T11:50:16.191Z,96839.27
2019-03-15T11:54:21.089Z,96853.84
2019-03-15T11:58:25.996Z,96847.23
2019-03-15T12:02:30.900Z,96840.79
2019-03-15T12:06:35.790Z,96839.70
2019-03-15T12:10:40.696Z,96851.02
2019-03-15T12:14:45.577Z,96850.32
2019-03-15T12:18:50.472Z,96863.39
2019-03-15T12:22:55.382Z,96852.48
2019-03-15T12:27:00.321Z,96858.50
2019-03-15T12:31:05.225Z,96855.17
2019-03-15T12:35:12.443Z,96849.33
2019-03-15T12:39:17.690Z,96857.03
2019-03-15T12:43:22.597Z,96856.19
2019-03-15T12:47:27.485Z,96852.67
2019-03-15T12:51:32.620Z,96860.02
2019-03-15T12:55:37.618Z,96864.98
2019-03-15T12:59:42.467Z,96859.97
2019-03-15T13:03:47.367Z,96858.55
2019-03-15T13:07:52.301Z,96852.48
2019-03-15T13:11:57.168Z,96841.12
2019-03-15T13:16:02.068Z,96843.33
2019-03-15T13:20:10.039Z,96844.73
2019-03-15T13:24:15.000Z,96845.73
2019-03-15T13:28:19.891Z,96858.41
2019-03-15T13:32:24.789Z,96865.77
2019-03-15T13:36:29.705Z,96867.30
2019-03-15T13:40:34.603Z,96878.11
2019-03-15T13:44:40.505Z,96874.41
2019-03-15T13:48:45.425Z,96896.66
2019-03-15T13:52:50.320Z,96889.88
2019-03-15T13:56:55.223Z,96895.14
2019-03-15T14:01:00.116Z,96890.44
2019-03-15T14:05:05.635Z,96884.26
2019-03-15T14:09:10.510Z,96877.40
2019-03-15T14:13:15.491Z,96877.63
2019-03-15T14:17:20.384Z,96868.00
2019-03-15T14:21:26.585Z,96861.42
2019-03-15T14:25:31.475Z,96870.21
2019-03-15T14:29:36.367Z,96870.45
2019-03-15T14:33:41.263Z,96876.98
2019-03-15T14:37:46.296Z,96892.63
2019-03-15T14:41:51.272Z,96874.08
2019-03-15T14:45:56.174Z,96875.25
2019-03-15T14:50:00.999Z,96873.47
2019-03-15T14:54:06.968Z,96858.79
2019-03-15T14:58:11.868Z,96864.53
2019-03-15T15:02:16.775Z,96854.61
2019-03-15T15:06:21.669Z,96853.72
2019-03-15T15:10:26.571Z,96861.65
2019-03-15T15:14:31.451Z,96849.24
2019-03-15T15:18:36.356Z,96869.98
2019-03-15T15:22:41.245Z,96838.80
2019-03-15T15:26:46.170Z,96866.53
2019-03-15T15:30:51.070Z,96857.58
2019-03-15T15:34:57.029Z,96858.64
2019-03-15T15:39:01.930Z,96881.26
2019-03-15T15:43:07.203Z,96892.47
2019-03-15T15:47:12.111Z,96885.52
2019-03-15T15:51:17.006Z,96880.89
2019-03-15T15:55:21.901Z,96878.00
2019-03-15T15:59:26.788Z,96889.92
2019-03-15T16:03:31.681Z,96887.51
2019-03-15T16:07:36.693Z,96891.50
2019-03-15T16:11:41.558Z,96877.45
2019-03-15T16:15:46.458Z,96874.38
2019-03-15T16:19:51.350Z,96866.45
2019-03-15T16:23:56.252Z,96879.61
2019-03-15T16:28:01.149Z,96879.06
2019-03-15T16:32:06.044Z,96878.05
2019-03-15T16:36:10.940Z,96877.51
2019-03-15T16:40:16.281Z,96883.44
2019-03-15T16:44:21.167Z,96875.86
2019-03-15T16:48:26.064Z,96872.60
2019-03-15T16:52:30.956Z,96876.75
2019-03-15T16:56:35.862Z,96875.10
2019-03-15T17:00:40.758Z,96885.52
2019-03-15T17:04:45.653Z,96878.31
2019-03-15T17:08:50.552Z,96896.12
2019-03-15T17:12:56.007Z,96888.08
2019-03-15T17:17:00.986Z,96886.21
2019-03-15T17:21:05.906Z,96885.37
2019-03-15T17:25:12.045Z,96893.44
2019-03-15T17:29:17.005Z,96895.42
2019-03-15T17:33:21.906Z,96894.74
2019-03-15T17:37:26.788Z,96896.52
2019-03-15T17:41:31.711Z,96894.56
2019-03-15T17:45:36.600Z,96884.36
2019-03-15T17:49:41.490Z,96899.72
2019-03-15T17:53:46.385Z,96898.06
2019-03-15T17:57:51.286Z,96913.80
2019-03-15T18:01:56.181Z,96901.99
2019-03-15T18:06:01.078Z,96920.81
2019-03-15T18:10:07.325Z,96910.20
2019-03-15T18:14:12.203Z,96921.37
2019-03-15T18:18:17.093Z,96926.23
2019-03-15T18:22:21.984Z,96935.42
2019-03-15T18:26:26.882Z,96947.69
2019-03-15T18:30:31.777Z,96931.19
2019-03-15T18:34:36.687Z,96935.12
2019-03-15T18:38:41.583Z,96934.77
2019-03-15T18:42:46.650Z,96934.39
2019-03-15T18:46:51.542Z,96934.19
2019-03-15T18:50:56.434Z,96935.70
2019-03-15T18:55:01.342Z,96933.92
2019-03-15T18:59:07.473Z,96938.79
2019-03-15T19:03:12.489Z,96956.22
2019-03-15T19:07:17.377Z,96949.20
2019-03-15T19:11:22.274Z,96967.91
2019-03-15T19:15:27.178Z,96962.47
2019-03-15T19:19:32.062Z,96971.90
2019-03-15T19:23:36.965Z,96963.69
2019-03-15T19:27:41.864Z,96972.94
2019-03-15T19:31:46.761Z,96976.49
2019-03-15T19:35:51.649Z,96963.77
2019-03-15T19:39:56.543Z,96966.52
2019-03-15T19:44:01.467Z,96987.02
2019-03-15T19:48:06.359Z,96998.64
2019-03-15T19:52:11.299Z,96987.55
2019-03-15T19:56:16.211Z,96989.33
2019-03-15T20:00:22.048Z,96994.95
2019-03-15T20:04:26.953Z,97004.59
2019-03-15T20:08:31.841Z,97003.83
2019-03-15T20:12:36.736Z,97019.09
2019-03-15T20:16:41.658Z,97030.05
2019-03-15T20:20:46.544Z,97021.45
2019-03-15T20:24:51.518Z,97035.11
2019-03-15T20:28:56.416Z,97048.41
2019-03-15T20:33:01.323Z,97051.77
2019-03-15T20:37:06.228Z,97044.83
2019-03-15T20:41:11.113Z,97041.27
2019-03-15T20:45:25.012Z,97052.34
2019-03-15T20:49:29.975Z,97074.52
2019-03-15T20:53:34.884Z,97076.39
2019-03-15T20:57:39.784Z,97074.23
2019-03-15T21:01:44.665Z,97082.37
2019-03-15T21:05:49.569Z,97079.67
2019-03-15T21:09:54.463Z,97075.92
2019-03-15T21:13:59.369Z,97090.89
2019-03-15T21:18:04.267Z,97151.73
2019-03-15T21:22:09.231Z,97144.37
2019-03-15T21:26:14.136Z,97155.49
2019-03-15T21:30:20.578Z,97165.53
2019-03-15T21:34:25.472Z,97179.73
2019-03-15T21:38:30.378Z,97176.64
2019-03-15T21:42:35.258Z,97168.96
2019-03-15T21:46:40.164Z,97173.98
2019-03-15T21:50:45.059Z,97191.39
2019-03-15T21:54:51.026Z,97185.02
2019-03-15T21:58:55.919Z,97199.55
2019-03-15T22:03:00.811Z,97199.16
2019-03-15T22:07:05.709Z,97201.03
2019-03-15T22:11:20.674Z,97211.11
2019-03-15T22:15:17.241Z,97223.97
2019-03-15T22:19:22.120Z,97212.36
2019-03-15T22:23:26.989Z,97205.96
2019-03-15T22:27:31.880Z,97200.20
2019-03-15T22:31:36.791Z,97198.67
2019-03-15T22:35:41.686Z,97203.28
2019-03-15T22:39:46.587Z,97206.92
2019-03-15T22:43:52.946Z,97206.43
2019-03-15T22:47:57.845Z,97228.53
2019-03-15T22:52:02.744Z,97223.70
2019-03-15T22:56:07.647Z,97225.59
2019-03-15T23:00:21.062Z,97222.83
2019-03-15T23:04:27.541Z,97237.36
2019-03-15T23:08:32.470Z,97234.98
2019-03-15T23:12:37.327Z,97253.16
2019-03-15T23:16:42.220Z,97252.61
2019-03-15T23:20:47.126Z,97247.15
2019-03-15T23:24:52.021Z,97241.46
2019-03-15T23:28:56.916Z,97261.54
2019-03-15T23:33:02.881Z,97273.37
2019-03-15T23:37:07.778Z,97272.72
2019-03-15T23:41:12.690Z,97277.48
2019-03-15T23:45:17.572Z,97290.38
2019-03-15T23:49:22.478Z,97297.72
2019-03-15T23:53:27.367Z,97297.76
2019-03-15T23:57:32.260Z,97312.73
